Time;durP1;ratioP1;P1;durP2;ratioP2;P2;SDS_P1;SDS_P2;PMS_P1;PMS_P2;Temp;Humidity;BMP_temperature;BMP_pressure;BME280_temperature;BME280_humidity;BME280_pressure;Samples;Min_cycle;Max_cycle;Signal;HPM_P1;HPM_P2
2023/03/08 00:00:34;;;;;;;3.38;2.15;;;-0.20;99.90;;;;;;5069490;28;20119;-56
2023/03/08 00:03:00;;;;;;;5.70;2.15;;;-0.20;99.90;;;;;;5062563;28;20116;-58
2023/03/08 00:05:25;;;;;;;9.47;3.23;;;-0.20;99.90;;;;;;5065183;28;20041;-58
2023/03/08 00:07:54;;;;;;;3.63;2.47;;;-0.20;99.90;;;;;;5062383;28;20040;-57
2023/03/08 00:10:21;;;;;;;8.05;3.25;;;-0.30;99.90;;;;;;5056628;28;20106;-58
2023/03/08 00:12:46;;;;;;;5.40;3.13;;;-0.20;99.90;;;;;;5066373;28;20525;-58
2023/03/08 00:15:12;;;;;;;4.33;2.80;;;-0.20;99.90;;;;;;5069460;28;20063;-57
2023/03/08 00:17:38;;;;;;;7.03;2.57;;;-0.20;99.90;;;;;;5058372;28;20037;-55
2023/03/08 00:20:06;;;;;;;3.70;2.35;;;-0.20;99.90;;;;;;5063245;28;20033;-56
2023/03/08 00:22:36;;;;;;;3.67;3.00;;;-0.20;99.90;;;;;;5058119;28;20045;-56
2023/03/08 00:25:02;;;;;;;5.78;2.83;;;-0.20;99.90;;;;;;5059855;28;20482;-56
2023/03/08 00:27:27;;;;;;;4.82;3.25;;;-0.30;99.90;;;;;;5065483;28;20048;-58
2023/03/08 00:29:53;;;;;;;5.17;3.77;;;-0.30;99.90;;;;;;5070740;28;20032;-57
2023/03/08 00:32:18;;;;;;;5.70;4.83;;;-0.30;99.90;;;;;;5074156;28;20032;-57
2023/03/08 00:34:45;;;;;;;4.17;3.77;;;-0.20;99.90;;;;;;5089447;28;20101;-58
2023/03/08 00:37:12;;;;;;;7.13;3.65;;;-0.20;99.90;;;;;;5090921;28;20397;-57
2023/03/08 00:39:38;;;;;;;;;;;-0.20;99.90;;;;;;5091484;28;20587;-54
2023/03/08 00:42:03;;;;;;;5.20;3.25;;;-0.20;99.90;;;;;;5080992;28;19921;-58
2023/03/08 00:44:29;;;;;;;4.40;4.10;;;-0.20;99.90;;;;;;5072970;28;20083;-59
2023/03/08 00:46:54;;;;;;;5.30;3.23;;;-0.30;99.90;;;;;;5072808;28;20093;-54
2023/03/08 00:49:21;;;;;;;4.90;3.30;;;-0.30;99.90;;;;;;5070655;28;20041;-55
2023/03/08 00:51:47;;;;;;;6.22;3.53;;;-0.40;99.90;;;;;;5072654;28;20056;-58
2023/03/08 00:54:13;;;;;;;3.58;3.28;;;-0.40;99.90;;;;;;5071963;28;20118;-57
2023/03/08 00:56:38;;;;;;;6.47;3.87;;;-0.50;99.90;;;;;;5071620;28;20125;-55
2023/03/08 00:59:04;;;;;;;9.17;4.00;;;-0.50;99.90;;;;;;5070270;28;20040;-57
2023/03/08 01:01:30;;;;;;;5.53;3.93;;;-0.50;99.90;;;;;;5073548;28;20037;-58
2023/03/08 01:03:55;;;;;;;4.20;3.67;;;-0.50;99.90;;;;;;5072931;28;20047;-56
2023/03/08 01:06:21;;;;;;;7.03;4.20;;;-0.60;99.90;;;;;;5072644;28;20045;-55
2023/03/08 01:08:47;;;;;;;4.82;3.20;;;-0.60;99.90;;;;;;5071777;28;20048;-56
2023/03/08 01:11:24;;;;;;;6.77;4.57;;;-0.60;99.90;;;;;;5072434;28;20082;-57
2023/03/08 01:13:51;;;;;;;5.78;4.40;;;-0.70;99.90;;;;;;5072518;28;20075;-57
2023/03/08 01:16:26;;;;;;;10.07;5.38;;;-0.60;99.90;;;;;;5072428;28;20091;-57
2023/03/08 01:18:53;;;;;;;7.00;4.70;;;-0.60;99.90;;;;;;5056498;28;20495;-57
2023/03/08 01:21:19;;;;;;;6.70;4.50;;;-0.60;99.90;;;;;;5051964;28;20876;-55
2023/03/08 01:23:45;;;;;;;5.68;4.53;;;-0.70;99.90;;;;;;5052153;28;20084;-54
2023/03/08 01:26:13;;;;;;;5.50;4.68;;;-0.60;99.90;;;;;;5055857;28;20120;-55
2023/03/08 01:28:39;;;;;;;5.20;4.68;;;-0.70;99.90;;;;;;5068841;28;20044;-55
2023/03/08 01:31:13;;;;;;;8.83;5.10;;;-0.70;99.90;;;;;;5072285;28;20033;-55
2023/03/08 01:33:39;;;;;;;5.78;4.82;;;-0.70;99.90;;;;;;5054663;28;20068;-57
2023/03/08 01:36:10;;;;;;;10.25;5.82;;;-0.70;99.90;;;;;;5052279;28;20033;-57
2023/03/08 01:38:36;;;;;;;11.18;5.47;;;-0.70;99.90;;;;;;5051225;28;20079;-56
2023/03/08 01:41:04;;;;;;;9.82;6.20;;;-0.70;99.90;;;;;;5052455;28;20068;-56
2023/03/08 01:43:36;;;;;;;8.80;6.65;;;-0.70;99.90;;;;;;5051689;28;20498;-57
2023/03/08 01:46:32;;;;;;;8.27;5.90;;;-0.70;99.90;;;;;;5069685;28;20029;-58
2023/03/08 01:49:11;;;;;;;12.48;6.28;;;-0.70;99.90;;;;;;5070120;28;20051;-55
2023/03/08 01:51:45;;;;;;;11.23;6.82;;;-0.70;99.90;;;;;;5071981;28;20043;-57
2023/03/08 01:54:19;;;;;;;8.77;7.15;;;-0.70;99.90;;;;;;5071564;28;20132;-57
2023/03/08 01:56:47;;;;;;;10.18;6.88;;;-0.70;99.90;;;;;;5071700;28;20459;-54
2023/03/08 01:59:13;;;;;;;9.25;7.22;;;-0.70;99.90;;;;;;5070622;28;20048;-57
2023/03/08 02:01:40;;;;;;;12.65;8.50;;;-0.80;99.90;;;;;;5071751;28;20044;-58
2023/03/08 02:04:06;;;;;;;8.85;7.30;;;-0.80;99.90;;;;;;5071382;28;20041;-56
2023/03/08 02:06:32;;;;;;;;;;;-0.90;99.90;;;;;;5071736;28;20037;-55
2023/03/08 02:09:02;;;;;;;11.57;8.68;;;-0.90;99.90;;;;;;5069761;28;20415;-55
2023/03/08 02:11:27;;;;;;;11.93;8.27;;;-1.00;99.90;;;;;;5072066;28;20032;-56
2023/03/08 02:13:54;;;;;;;15.87;8.77;;;-1.00;99.90;;;;;;5071342;28;20406;-57
2023/03/08 02:16:20;;;;;;;;;;;-1.10;99.90;;;;;;5071635;28;20044;-58
2023/03/08 02:19:11;;;;;;;12.60;8.65;;;-1.10;99.90;;;;;;5070074;28;19978;-59
2023/03/08 02:21:36;;;;;;;12.25;9.68;;;-1.10;99.90;;;;;;5060206;28;20037;-55
2023/03/08 02:24:16;;;;;;;11.13;9.43;;;-1.10;99.90;;;;;;5050878;28;20379;-56
2023/03/08 02:26:42;;;;;;;14.55;9.15;;;-1.10;99.90;;;;;;5050974;28;20079;-56
2023/03/08 02:29:08;;;;;;;14.52;10.35;;;-1.10;99.90;;;;;;5084982;28;20083;-56
2023/03/08 02:31:33;;;;;;;10.67;9.23;;;-1.10;99.90;;;;;;5091489;28;20356;-57
2023/03/08 02:33:59;;;;;;;16.00;9.87;;;-1.10;99.90;;;;;;5090608;28;20043;-54
2023/03/08 02:36:24;;;;;;;12.43;10.03;;;-1.10;99.90;;;;;;5091250;28;20036;-56
2023/03/08 02:38:50;;;;;;;16.33;11.27;;;-1.10;99.90;;;;;;5089792;28;20073;-57
2023/03/08 02:41:15;;;;;;;15.97;11.37;;;-1.10;99.90;;;;;;5087725;28;20489;-58
2023/03/08 02:43:41;;;;;;;16.97;11.87;;;-1.10;99.90;;;;;;5066484;28;20032;-58
2023/03/08 02:46:11;;;;;;;15.67;11.37;;;-1.10;99.90;;;;;;5059220;28;20517;-57
2023/03/08 02:48:36;;;;;;;12.77;10.10;;;-1.10;99.90;;;;;;5050515;28;20513;-55
2023/03/08 02:51:02;;;;;;;14.77;10.67;;;-1.10;99.90;;;;;;5062459;28;20036;-55
2023/03/08 02:53:28;;;;;;;17.83;11.53;;;-1.10;99.90;;;;;;5066161;28;20107;-55
2023/03/08 02:55:53;;;;;;;15.18;12.02;;;-1.10;99.90;;;;;;5059790;28;20577;-56
2023/03/08 02:58:19;;;;;;;20.80;13.03;;;-1.10;99.90;;;;;;5069333;28;20036;-57
2023/03/08 03:00:44;;;;;;;16.83;11.53;;;-1.10;99.90;;;;;;5054875;28;20036;-53
2023/03/08 03:03:10;;;;;;;17.13;13.13;;;-1.00;99.90;;;;;;5049904;28;20051;-55
2023/03/08 03:05:41;;;;;;;15.60;11.83;;;-1.00;99.90;;;;;;5050573;28;20052;-54
2023/03/08 03:08:08;;;;;;;12.70;11.27;;;-1.00;99.90;;;;;;5049228;28;20033;-56
2023/03/08 03:10:35;;;;;;;16.23;12.18;;;-1.00;99.90;;;;;;5050318;28;20410;-58
2023/03/08 03:13:00;;;;;;;22.00;11.85;;;-1.00;99.90;;;;;;5065803;28;20134;-57
2023/03/08 03:15:26;;;;;;;14.97;11.23;;;-0.90;99.90;;;;;;5070138;28;20141;-55
2023/03/08 03:17:52;;;;;;;15.53;11.30;;;-0.90;99.90;;;;;;5068330;28;20040;-57
2023/03/08 03:20:17;;;;;;;14.20;11.17;;;-1.00;99.90;;;;;;5070290;28;20036;-56
2023/03/08 03:22:43;;;;;;;13.17;9.97;;;-1.00;99.90;;;;;;5070307;28;20040;-55
2023/03/08 03:25:09;;;;;;;16.77;9.93;;;-1.00;99.90;;;;;;5070024;28;20041;-55
2023/03/08 03:27:35;;;;;;;12.52;9.27;;;-1.00;99.90;;;;;;5061804;28;20032;-55
2023/03/08 03:30:00;;;;;;;15.00;10.20;;;-1.00;99.90;;;;;;5050063;28;20033;-58
2023/03/08 03:32:26;;;;;;;12.10;9.00;;;-1.00;99.90;;;;;;5058231;28;20051;-54
2023/03/08 03:34:52;;;;;;;11.10;9.30;;;-1.00;99.90;;;;;;5068883;28;20123;-57
2023/03/08 03:37:17;;;;;;;26.73;9.60;;;-1.00;99.90;;;;;;5068691;28;20444;-56
2023/03/08 03:39:43;;;;;;;12.23;9.60;;;-1.00;99.90;;;;;;5069195;28;20085;-57
2023/03/08 03:42:09;;;;;;;12.53;8.90;;;-0.90;99.90;;;;;;5069845;28;20044;-55
2023/03/08 03:44:34;;;;;;;10.50;7.88;;;-1.00;99.90;;;;;;5061455;28;20085;-57
2023/03/08 03:47:00;;;;;;;13.47;7.90;;;-1.00;99.90;;;;;;5048354;28;20124;-57
2023/03/08 03:49:26;;;;;;;9.73;7.70;;;-1.00;99.90;;;;;;5076881;28;20308;-58
2023/03/08 03:51:52;;;;;;;10.45;7.78;;;-1.10;99.90;;;;;;5090352;28;20071;-56
2023/03/08 03:54:17;;;;;;;15.73;7.77;;;-1.10;99.90;;;;;;5090236;28;20047;-56
2023/03/08 03:56:43;;;;;;;13.10;8.33;;;-1.20;99.90;;;;;;5074024;28;20036;-57
2023/03/08 03:59:08;;;;;;;9.73;8.73;;;-1.20;99.90;;;;;;5055160;28;20051;-56
2023/03/08 04:01:34;;;;;;;10.47;8.07;;;-1.20;99.90;;;;;;5066406;28;20068;-55
2023/03/08 04:03:59;;;;;;;12.07;9.00;;;-1.20;99.90;;;;;;5060610;28;20071;-58
2023/03/08 04:06:31;;;;;;;13.33;8.87;;;-1.20;99.90;;;;;;5061893;28;20040;-57
2023/03/08 04:09:06;;;;;;;12.15;9.50;;;-1.10;99.90;;;;;;5066916;28;20054;-58
2023/03/08 04:11:34;;;;;;;15.85;8.30;;;-1.10;99.90;;;;;;5049978;28;20517;-58
2023/03/08 04:14:00;;;;;;;13.05;9.30;;;-1.10;99.90;;;;;;5053979;28;20041;-56
2023/03/08 04:16:29;;;;;;;12.73;8.03;;;-1.10;99.90;;;;;;5053615;28;20045;-57
2023/03/08 04:19:00;;;;;;;10.82;8.95;;;-1.00;99.90;;;;;;5052368;28;20113;-55
2023/03/08 04:21:27;;;;;;;11.05;9.43;;;-1.00;99.90;;;;;;5056021;28;20057;-55
2023/03/08 04:23:53;;;;;;;13.40;8.65;;;-1.00;99.90;;;;;;5073901;28;20055;-58
2023/03/08 04:26:19;;;;;;;15.87;7.63;;;-1.00;99.90;;;;;;5072877;28;20045;-55
2023/03/08 04:28:44;;;;;;;11.80;7.47;;;-1.00;99.90;;;;;;5072501;28;20055;-55
2023/03/08 04:31:19;;;;;;;13.07;8.40;;;-1.00;99.90;;;;;;5073594;28;20032;-57
2023/03/08 04:33:46;;;;;;;11.65;8.10;;;-0.90;99.90;;;;;;5073197;28;20051;-55
2023/03/08 04:36:12;;;;;;;12.10;7.78;;;-1.00;99.90;;;;;;5073223;28;20076;-57
2023/03/08 04:38:38;;;;;;;;;;;-0.90;99.90;;;;;;5070783;28;20051;-57
2023/03/08 04:41:09;;;;;;;8.32;7.25;;;-0.90;99.90;;;;;;5072785;28;19917;-58
2023/03/08 04:43:35;;;;;;;8.55;7.18;;;-0.90;99.90;;;;;;5071994;28;20076;-57
2023/03/08 04:46:01;;;;;;;10.13;7.45;;;-0.90;99.90;;;;;;5073078;28;20375;-57
2023/03/08 04:48:27;;;;;;;9.77;7.47;;;-0.90;99.90;;;;;;5072019;28;20048;-58
2023/03/08 04:50:58;;;;;;;10.98;7.13;;;-1.00;99.90;;;;;;5073389;28;20557;-54
2023/03/08 04:53:25;;;;;;;9.48;6.97;;;-0.90;99.90;;;;;;5072625;28;20049;-54
2023/03/08 04:55:51;;;;;;;8.18;7.32;;;-1.00;99.90;;;;;;5073231;28;20042;-57
2023/03/08 04:58:18;;;;;;;13.90;7.55;;;-1.00;99.90;;;;;;5066535;28;20094;-57
2023/03/08 05:00:44;;;;;;;10.82;7.57;;;-1.00;99.90;;;;;;5053186;28;20033;-54
2023/03/08 05:03:09;;;;;;;10.07;6.43;;;-1.00;99.90;;;;;;5052761;28;20086;-55
2023/03/08 05:05:35;;;;;;;8.68;6.97;;;-1.10;99.90;;;;;;5063854;28;20556;-57
2023/03/08 05:08:04;;;;;;;7.15;6.43;;;-1.10;99.90;;;;;;5051518;28;20125;-57
2023/03/08 05:10:32;;;;;;;9.70;6.63;;;-1.10;99.90;;;;;;5064078;28;20037;-54
2023/03/08 05:12:58;;;;;;;7.95;7.15;;;-1.10;99.90;;;;;;5052576;28;20482;-54
2023/03/08 05:15:23;;;;;;;9.57;6.50;;;-1.10;99.90;;;;;;5068494;28;20051;-55
2023/03/08 05:17:50;;;;;;;12.37;6.50;;;-1.10;99.90;;;;;;5070944;28;20040;-55
2023/03/08 05:20:16;;;;;;;11.30;6.28;;;-1.10;99.90;;;;;;5072199;28;20063;-56
2023/03/08 05:22:42;;;;;;;9.55;6.32;;;-1.10;99.90;;;;;;5069978;28;20044;-57
2023/03/08 05:25:09;;;;;;;9.32;5.93;;;-1.10;99.90;;;;;;5071457;28;20390;-59
2023/03/08 05:27:35;;;;;;;8.77;7.05;;;-1.10;99.90;;;;;;5055221;28;20047;-54
2023/03/08 05:30:01;;;;;;;8.60;6.90;;;-1.10;99.90;;;;;;5052259;28;20045;-57
2023/03/08 05:32:27;;;;;;;7.00;6.10;;;-1.10;99.90;;;;;;5050846;28;20048;-55
2023/03/08 05:34:53;;;;;;;6.60;5.90;;;-1.10;99.90;;;;;;5052217;28;20521;-54
2023/03/08 05:37:18;;;;;;;8.85;5.93;;;-1.10;99.90;;;;;;5051337;28;20048;-57
2023/03/08 05:39:44;;;;;;;8.60;6.47;;;-1.10;99.90;;;;;;5051020;28;20175;-58
2023/03/08 05:42:11;;;;;;;12.77;6.17;;;-1.10;99.90;;;;;;5051996;28;20041;-55
2023/03/08 05:44:37;;;;;;;6.43;5.75;;;-1.10;99.90;;;;;;5051896;28;20044;-57
2023/03/08 05:47:03;;;;;;;8.33;6.67;;;-1.10;99.90;;;;;;5051885;28;20156;-56
2023/03/08 05:49:28;;;;;;;8.27;5.72;;;-1.10;99.90;;;;;;5049511;28;20508;-56
2023/03/08 05:51:54;;;;;;;8.70;6.40;;;-1.10;99.90;;;;;;5052001;28;20098;-57
2023/03/08 05:54:20;;;;;;;10.13;7.10;;;-1.10;99.90;;;;;;5051036;28;20063;-55
2023/03/08 05:56:46;;;;;;;7.38;5.95;;;-1.20;99.90;;;;;;5052185;28;20037;-57
2023/03/08 05:59:11;;;;;;;8.13;5.50;;;-1.10;99.90;;;;;;5057847;28;20040;-57
2023/03/08 06:01:37;;;;;;;6.57;5.97;;;-1.20;99.90;;;;;;5057434;28;20418;-55
2023/03/08 06:04:02;;;;;;;12.20;7.17;;;-1.20;99.90;;;;;;5063537;28;20041;-57
2023/03/08 06:06:28;;;;;;;12.57;7.60;;;-1.10;99.90;;;;;;5062487;28;20124;-56
2023/03/08 06:08:55;;;;;;;15.53;9.33;;;-1.10;99.90;;;;;;5049777;28;20065;-54
2023/03/08 06:11:21;;;;;;;8.52;7.00;;;-1.10;99.90;;;;;;5060174;28;20089;-57
2023/03/08 06:13:47;;;;;;;14.00;7.95;;;-1.10;99.90;;;;;;5060305;28;20049;-58
2023/03/08 06:16:13;;;;;;;14.75;9.98;;;-1.20;99.90;;;;;;5060104;28;20044;-57
2023/03/08 06:18:40;;;;;;;11.27;9.30;;;-1.20;99.90;;;;;;5069900;28;20043;-57
2023/03/08 06:21:11;;;;;;;12.38;9.25;;;-1.20;99.90;;;;;;5057321;28;20047;-58
2023/03/08 06:23:37;;;;;;;13.77;9.98;;;-1.20;99.90;;;;;;5050457;28;20051;-57
2023/03/08 06:26:04;;;;;;;17.52;12.35;;;-1.20;99.90;;;;;;5051475;28;20033;-55
2023/03/08 06:28:30;;;;;;;17.60;13.68;;;-1.20;99.90;;;;;;5048887;28;20433;-57
2023/03/08 06:30:56;;;;;;;23.75;15.98;;;-1.20;99.90;;;;;;5050953;28;20049;-58
2023/03/08 06:33:25;;;;;;;27.27;19.30;;;-1.20;99.90;;;;;;5068266;28;20418;-57
2023/03/08 06:35:56;;;;;;;30.80;21.38;;;-1.20;99.90;;;;;;5060411;28;20037;-56
2023/03/08 06:38:23;;;;;;;40.65;23.95;;;-1.20;99.90;;;;;;5061929;28;20381;-55
2023/03/08 06:40:48;;;;;;;42.67;24.30;;;-1.20;99.90;;;;;;5052256;28;20032;-55
2023/03/08 06:43:14;;;;;;;40.57;25.00;;;-1.20;99.90;;;;;;5063014;28;20044;-57
2023/03/08 06:45:40;;;;;;;65.10;27.20;;;-1.20;99.90;;;;;;5057314;28;20052;-56
2023/03/08 06:48:05;;;;;;;311.90;39.10;;;-1.20;99.90;;;;;;5052560;28;20076;-54
2023/03/08 06:50:32;;;;;;;284.67;38.60;;;-1.20;99.90;;;;;;5062830;28;20283;-54
2023/03/08 06:52:57;;;;;;;327.38;46.67;;;-1.30;99.90;;;;;;5058247;28;20037;-57
2023/03/08 06:55:23;;;;;;;319.07;49.10;;;-1.30;99.90;;;;;;5060103;28;20036;-58
2023/03/08 06:57:49;;;;;;;303.33;46.00;;;-1.30;99.90;;;;;;5069671;28;20274;-54
2023/03/08 07:00:15;;;;;;;248.40;44.37;;;-1.40;99.90;;;;;;5054612;28;20037;-56
2023/03/08 07:02:41;;;;;;;255.40;48.58;;;-1.40;99.90;;;;;;5050685;28;20044;-56
2023/03/08 07:05:06;;;;;;;297.77;49.90;;;-1.40;99.90;;;;;;5049765;28;20094;-56
2023/03/08 07:07:34;;;;;;;274.02;46.63;;;-1.40;99.90;;;;;;5049276;28;20049;-58
2023/03/08 07:09:59;;;;;;;320.42;52.28;;;-1.40;99.90;;;;;;5082107;28;20048;-55
2023/03/08 07:12:25;;;;;;;207.57;40.77;;;-1.40;99.90;;;;;;5074108;28;20037;-58
2023/03/08 07:14:52;;;;;;;230.73;42.97;;;-1.40;99.90;;;;;;5065490;28;20569;-54
2023/03/08 07:17:18;;;;;;;297.33;56.58;;;-1.40;99.90;;;;;;5056487;28;20041;-57
2023/03/08 07:19:44;;;;;;;208.57;50.88;;;-1.40;99.90;;;;;;5069018;28;20043;-56
2023/03/08 07:22:11;;;;;;;194.70;45.35;;;-1.30;99.90;;;;;;5069978;28;20041;-55
2023/03/08 07:24:37;;;;;;;211.80;45.08;;;-1.30;99.90;;;;;;5070037;28;20071;-56
2023/03/08 07:27:04;;;;;;;171.55;47.55;;;-1.30;99.90;;;;;;5070021;28;20090;-57
2023/03/08 07:29:29;;;;;;;110.93;43.63;;;-1.30;99.90;;;;;;5068827;28;20529;-57
2023/03/08 07:31:55;;;;;;;133.93;46.10;;;-1.20;99.90;;;;;;5069610;28;20029;-56
2023/03/08 07:34:20;;;;;;;91.70;41.08;;;-1.20;99.90;;;;;;5067604;28;20421;-55
2023/03/08 07:36:46;;;;;;;120.00;41.03;;;-1.20;99.90;;;;;;5056396;28;20041;-58
2023/03/08 07:39:12;;;;;;;268.27;61.27;;;-1.10;99.90;;;;;;5068761;28;20116;-55
2023/03/08 07:41:37;;;;;;;231.43;60.53;;;-1.10;99.90;;;;;;5054763;28;20064;-58
2023/03/08 07:44:03;;;;;;;264.83;58.87;;;-1.10;99.90;;;;;;5066176;28;20036;-54
2023/03/08 07:46:29;;;;;;;315.73;62.75;;;-1.00;99.90;;;;;;5068252;28;20028;-55
2023/03/08 07:48:55;;;;;;;315.27;57.42;;;-1.00;99.90;;;;;;5056066;28;20037;-56
2023/03/08 07:51:20;;;;;;;283.27;59.30;;;-1.00;99.90;;;;;;5056614;28;20094;-54
2023/03/08 07:53:46;;;;;;;232.07;51.87;;;-1.00;99.90;;;;;;5058399;28;20041;-54
2023/03/08 07:56:11;;;;;;;184.57;50.70;;;-0.90;99.90;;;;;;5069505;28;20485;-55
2023/03/08 07:58:38;;;;;;;260.17;58.17;;;-0.90;99.90;;;;;;5057335;28;20142;-58
2023/03/08 08:01:09;;;;;;;258.52;60.53;;;-0.90;99.90;;;;;;5060809;28;20115;-55
2023/03/08 08:03:36;;;;;;;319.67;57.25;;;-0.90;99.90;;;;;;5064691;28;20425;-54
2023/03/08 08:06:03;;;;;;;369.58;63.38;;;-0.90;99.90;;;;;;5049396;28;20112;-57
2023/03/08 08:08:28;;;;;;;;;;;-0.90;99.90;;;;;;5049875;28;20032;-54
2023/03/08 08:10:54;;;;;;;214.75;46.63;;;-0.80;99.90;;;;;;5072330;28;20349;-57
2023/03/08 08:13:19;;;;;;;291.83;56.20;;;-0.80;99.90;;;;;;5064987;28;20035;-56
2023/03/08 08:15:45;;;;;;;201.37;45.43;;;-0.80;99.90;;;;;;5057976;28;20487;-57
2023/03/08 08:18:11;;;;;;;316.42;55.65;;;-0.80;99.90;;;;;;5052589;28;20405;-56
2023/03/08 08:20:36;;;;;;;182.17;44.90;;;-0.70;99.90;;;;;;5058468;28;20417;-57
2023/03/08 08:23:05;;;;;;;211.00;51.60;;;-0.70;99.90;;;;;;5062361;28;20027;-56
2023/03/08 08:25:31;;;;;;;291.60;54.47;;;-0.70;99.90;;;;;;5055483;28;20045;-57
2023/03/08 08:27:56;;;;;;;236.23;47.60;;;-0.70;99.90;;;;;;5076759;28;20564;-57
2023/03/08 08:30:22;;;;;;;217.90;47.97;;;-0.70;99.90;;;;;;5086362;28;20123;-54
2023/03/08 08:32:48;;;;;;;171.13;44.88;;;-0.60;99.90;;;;;;5068903;28;20028;-57
2023/03/08 08:35:14;;;;;;;134.47;36.63;;;-0.60;99.90;;;;;;5069488;28;20480;-54
2023/03/08 08:37:40;;;;;;;183.63;42.38;;;-0.60;99.90;;;;;;5067923;28;20037;-57
2023/03/08 08:40:09;;;;;;;122.15;35.42;;;-0.50;99.90;;;;;;5081599;28;20413;-56
2023/03/08 08:42:35;;;;;;;143.98;45.88;;;-0.40;99.90;;;;;;5086197;28;20040;-54
2023/03/08 08:45:00;;;;;;;194.63;54.37;;;-0.30;99.90;;;;;;5069195;28;20457;-57
2023/03/08 08:47:28;;;;;;;216.60;60.07;;;-0.30;99.90;;;;;;5068269;28;20043;-56
2023/03/08 08:49:53;;;;;;;137.50;46.20;;;-0.10;99.90;;;;;;5068243;28;20405;-55
2023/03/08 08:52:19;;;;;;;120.97;39.73;;;-0.10;99.90;;;;;;5069515;28;20033;-55
2023/03/08 08:54:45;;;;;;;125.80;40.50;;;0.00;99.90;;;;;;5068911;28;20365;-54
2023/03/08 08:57:10;;;;;;;124.07;33.83;;;0.10;99.90;;;;;;5069105;28;20041;-57
2023/03/08 08:59:36;;;;;;;67.60;28.73;;;0.10;99.90;;;;;;5071950;28;20041;-57
2023/03/08 09:02:01;;;;;;;112.97;34.07;;;0.10;99.90;;;;;;5071349;28;20044;-58
2023/03/08 09:04:27;;;;;;;101.30;31.57;;;0.10;99.90;;;;;;5061125;28;20045;-54
2023/03/08 09:06:53;;;;;;;87.83;32.40;;;0.20;99.90;;;;;;5068973;28;20266;-57
2023/03/08 09:09:19;;;;;;;75.33;30.63;;;0.20;99.90;;;;;;5071503;28;20040;-56
2023/03/08 09:11:46;;;;;;;57.95;27.50;;;0.20;99.90;;;;;;5070290;28;20286;-55
2023/03/08 09:14:13;;;;;;;59.47;27.80;;;0.20;99.90;;;;;;5058883;28;20566;-57
2023/03/08 09:16:39;;;;;;;;;;;0.20;99.90;;;;;;5085079;28;20465;-55
2023/03/08 09:19:05;;;;;;;74.07;30.25;;;0.20;99.90;;;;;;5075923;28;19916;-57
2023/03/08 09:21:31;;;;;;;98.22;32.42;;;0.20;99.90;;;;;;5056939;28;20418;-57
2023/03/08 09:24:03;;;;;;;81.15;32.40;;;0.20;99.90;;;;;;5054625;28;20049;-56
2023/03/08 09:26:30;;;;;;;96.70;34.88;;;0.30;99.90;;;;;;5063494;28;20037;-56
2023/03/08 09:28:58;;;;;;;63.22;29.00;;;0.30;99.90;;;;;;5056282;28;20083;-56
2023/03/08 09:31:24;;;;;;;66.53;30.65;;;0.30;99.90;;;;;;5054916;28;20044;-56
2023/03/08 09:33:51;;;;;;;62.78;27.27;;;0.30;99.90;;;;;;5048192;28;20045;-58
2023/03/08 09:36:17;;;;;;;82.28;32.35;;;0.30;99.90;;;;;;5049815;28;20048;-56
2023/03/08 09:38:43;;;;;;;77.97;30.77;;;0.30;99.90;;;;;;5062258;22;20057;-54
2023/03/08 09:41:18;;;;;;;70.95;30.08;;;0.30;99.90;;;;;;5035647;28;20556;-50
2023/03/08 09:43:58;;;;;;;70.60;29.25;;;0.30;99.90;;;;;;5040463;28;20398;-49
2023/03/08 09:46:34;;;;;;;65.63;25.98;;;0.30;99.90;;;;;;5045173;28;20033;-53
2023/03/08 09:49:02;;;;;;;63.67;29.83;;;0.30;99.90;;;;;;5041396;28;20082;-48
2023/03/08 09:51:36;;;;;;;74.75;31.40;;;0.30;99.90;;;;;;5040656;28;20434;-50
2023/03/08 09:54:05;;;;;;;65.90;29.15;;;0.20;99.90;;;;;;5037875;28;20375;-52
2023/03/08 09:56:43;;;;;;;70.00;29.58;;;0.20;99.90;;;;;;5041234;28;20395;-49
2023/03/08 09:59:27;;;;;;;53.25;25.55;;;0.30;99.90;;;;;;5037120;28;20047;-49
2023/03/08 10:02:11;;;;;;;55.90;23.45;;;0.30;99.90;;;;;;5037870;28;20048;-48
2023/03/08 10:04:51;;;;;;;62.92;28.38;;;0.40;99.90;;;;;;5039516;28;20754;-48
2023/03/08 10:07:30;;;;;;;73.82;29.35;;;0.40;99.90;;;;;;5037791;28;20235;-50
2023/03/08 10:10:11;;;;;;;70.55;26.13;;;0.50;99.90;;;;;;5035130;28;20036;-52
2023/03/08 10:13:06;;;;;;;56.30;26.25;;;0.50;99.90;;;;;;5038382;28;20132;-50
2023/03/08 10:15:37;;;;;;;59.28;26.95;;;0.60;99.90;;;;;;5028381;28;20045;-52
2023/03/08 10:18:25;;;;;;;58.13;26.85;;;0.70;99.90;;;;;;5035507;28;20118;-49
2023/03/08 10:20:52;;;;;;;56.47;25.20;;;0.70;99.90;;;;;;5039719;28;20033;-53
2023/03/08 10:23:19;;;;;;;;;;;0.80;99.90;;;;;;5032739;28;20037;-50
2023/03/08 10:25:46;;;;;;;59.38;24.52;;;0.80;99.90;;;;;;5033341;28;19925;-51
2023/03/08 10:28:15;;;;;;;67.85;27.10;;;1.00;99.90;;;;;;5032288;28;20951;-49
2023/03/08 10:30:54;;;;;;;56.10;23.98;;;1.10;99.90;;;;;;5035842;28;20441;-48
2023/03/08 10:33:23;;;;;;;48.45;26.10;;;1.20;99.90;;;;;;5039472;28;20033;-50
2023/03/08 10:35:53;;;;;;;44.35;21.10;;;1.30;99.90;;;;;;5040174;28;20409;-48
2023/03/08 10:38:19;;;;;;;45.22;22.95;;;1.40;99.90;;;;;;5034553;28;20044;-49
2023/03/08 10:40:45;;;;;;;60.55;26.77;;;1.50;99.90;;;;;;5037061;28;20040;-48
2023/03/08 10:43:38;;;;;;;43.35;21.98;;;1.50;99.90;;;;;;5039633;28;20090;-49
2023/03/08 10:46:13;;;;;;;41.92;22.25;;;1.50;99.90;;;;;;5040369;28;20045;-49
2023/03/08 10:48:39;;;;;;;49.60;25.98;;;1.60;99.90;;;;;;5032274;28;21245;-48
2023/03/08 10:51:14;;;;;;;47.03;24.33;;;1.70;99.90;;;;;;5037877;28;20124;-49
2023/03/08 10:53:39;;;;;;;44.38;23.00;;;1.80;99.90;;;;;;5041074;28;20497;-48
2023/03/08 10:56:23;;;;;;;47.40;23.33;;;1.90;99.90;;;;;;5032687;28;20284;-48
2023/03/08 10:58:52;;;;;;;46.38;23.52;;;2.00;99.90;;;;;;5038537;28;20528;-47
2023/03/08 11:01:28;;;;;;;37.80;21.77;;;2.10;99.90;;;;;;5037250;28;20036;-50
2023/03/08 11:04:18;;;;;;;43.47;23.50;;;2.20;99.90;;;;;;5035196;28;20490;-47
2023/03/08 11:06:44;;;;;;;34.30;19.50;;;2.20;99.90;;;;;;5033082;28;20132;-47
2023/03/08 11:09:30;;;;;;;45.58;25.00;;;2.30;99.90;;;;;;5036037;28;20223;-48
2023/03/08 11:11:57;;;;;;;43.05;21.98;;;2.20;99.90;;;;;;5038838;28;20052;-47
2023/03/08 11:14:28;;;;;;;44.22;23.48;;;2.30;99.90;;;;;;5034591;28;20364;-49
2023/03/08 11:17:25;;;;;;;53.10;26.25;;;2.30;99.90;;;;;;5039192;28;20111;-47
2023/03/08 11:19:59;;;;;;;48.95;25.63;;;2.30;99.90;;;;;;5037114;28;20037;-48
2023/03/08 11:22:51;;;;;;;54.10;29.05;;;2.30;99.90;;;;;;5033583;28;20494;-47
2023/03/08 11:25:35;;;;;;;47.78;26.25;;;2.30;99.90;;;;;;5032875;28;20119;-48
2023/03/08 11:28:16;;;;;;;40.47;21.80;;;2.40;99.90;;;;;;5033663;28;20060;-52
2023/03/08 11:31:00;;;;;;;50.70;25.42;;;2.40;99.90;;;;;;5038734;28;20510;-48
2023/03/08 11:33:33;;;;;;;55.78;27.80;;;2.50;99.90;;;;;;5033918;28;20589;-48
2023/03/08 11:36:23;;;;;;;51.88;27.67;;;2.60;99.90;;;;;;5037580;28;20052;-48
2023/03/08 11:38:58;;;;;;;80.75;36.05;;;2.60;99.90;;;;;;5033341;28;20087;-48
2023/03/08 11:41:36;;;;;;;87.63;37.75;;;2.60;99.90;;;;;;5040140;28;20346;-48
2023/03/08 11:44:29;;;;;;;88.03;38.13;;;2.60;99.90;;;;;;5038375;28;20072;-48
2023/03/08 11:47:16;;;;;;;103.40;41.15;;;2.70;99.90;;;;;;5037588;28;20488;-48
2023/03/08 11:50:04;;;;;;;109.63;43.30;;;2.80;99.90;;;;;;5035714;28;20037;-48
2023/03/08 11:52:54;;;;;;;95.00;39.53;;;2.90;99.90;;;;;;5036190;28;20083;-48
2023/03/08 11:55:39;;;;;;;86.35;39.63;;;3.00;99.90;;;;;;5036712;28;20045;-48
2023/03/08 11:58:27;;;;;;;89.82;39.20;;;3.20;99.90;;;;;;5039098;28;20029;-50
2023/03/08 12:01:03;;;;;;;93.75;39.47;;;3.40;99.90;;;;;;5033963;28;20041;-49
2023/03/08 12:03:37;;;;;;;57.30;28.23;;;3.50;99.90;;;;;;5039588;28;20045;-48
2023/03/08 12:06:16;;;;;;;53.90;26.60;;;3.60;99.90;;;;;;5033086;28;20579;-53
2023/03/08 12:08:47;;;;;;;48.75;24.30;;;3.60;99.90;;;;;;5036886;28;20098;-48
2023/03/08 12:11:31;;;;;;;52.97;25.65;;;3.60;99.90;;;;;;5042340;28;20099;-52
2023/03/08 12:14:05;;;;;;;53.10;26.27;;;3.60;99.90;;;;;;5042731;28;20444;-50
2023/03/08 12:16:41;;;;;;;37.15;18.77;;;3.60;99.90;;;;;;5034943;28;20044;-48
2023/03/08 12:19:24;;;;;;;28.60;16.75;;;3.60;99.90;;;;;;5025207;28;20041;-50
2023/03/08 12:22:14;;;;;;;26.95;16.98;;;3.60;99.90;;;;;;5031717;28;20112;-49
2023/03/08 12:24:49;;;;;;;24.77;14.60;;;3.60;99.90;;;;;;5037575;28;20075;-48
2023/03/08 12:27:33;;;;;;;21.45;12.88;;;3.60;99.90;;;;;;5037474;28;20033;-49
2023/03/08 12:30:03;;;;;;;26.92;15.02;;;3.60;99.90;;;;;;5036789;28;20119;-50
2023/03/08 12:32:30;;;;;;;26.45;15.50;;;3.60;99.90;;;;;;5039824;28;20041;-48
2023/03/08 12:35:23;;;;;;;23.38;13.20;;;3.70;99.90;;;;;;5042365;28;20037;-48
2023/03/08 12:38:03;;;;;;;24.35;15.32;;;3.70;99.90;;;;;;5028931;28;20517;-48
2023/03/08 12:40:34;;;;;;;25.92;15.63;;;3.80;99.90;;;;;;5035729;28;20039;-49
2023/03/08 12:43:26;;;;;;;22.33;13.52;;;3.80;99.90;;;;;;5040185;28;20106;-49
2023/03/08 12:46:08;;;;;;;23.08;12.57;;;3.80;99.90;;;;;;5034703;28;20076;-48